Time;durP1;ratioP1;P1;durP2;ratioP2;P2;SDS_P1;SDS_P2;PMS_P1;PMS_P2;Temp;Humidity;BMP_temperature;BMP_pressure;BME280_temperature;BME280_humidity;BME280_pressure;Samples;Min_cycle;Max_cycle;Signal;HPM_P1;HPM_P2
2023/03/30 00:04:55;;;;;;;;;3.00;3.00;;;;;18.67;45.70;100246.06;5075244;28;45620;-73
2023/03/30 00:07:20;;;;;;;;;3.75;3.00;;;;;18.64;46.27;100233.94;5075147;28;45891;-74
2023/03/30 00:09:46;;;;;;;;;4.75;4.00;;;;;18.65;45.98;100218.84;5074935;27;46178;-73
2023/03/30 00:12:14;;;;;;;;;3.50;3.50;;;;;18.60;46.68;100214.06;5074735;27;45986;-73
2023/03/30 00:14:41;;;;;;;;;3.00;3.00;;;;;18.63;46.73;100192.47;5075147;27;45624;-75
2023/03/30 00:17:08;;;;;;;;;4.00;4.00;;;;;18.65;46.58;100197.63;5075271;28;45693;-74
2023/03/30 00:19:37;;;;;;;;;4.00;3.00;;;;;18.65;46.94;100184.34;5074668;27;45765;-73
2023/03/30 00:22:07;;;;;;;;;4.00;4.00;;;;;18.66;47.05;100200.09;5074683;27;46318;-72
2023/03/30 00:24:33;;;;;;;;;4.00;3.00;;;;;18.64;46.73;100220.66;5075131;27;45671;-73
2023/03/30 00:26:58;;;;;;;;;4.50;4.50;;;;;18.59;47.32;100193.00;5075118;27;45628;-74
2023/03/30 00:29:24;;;;;;;;;3.50;3.25;;;;;18.52;47.22;100173.41;5074535;27;46361;-74
2023/03/30 00:35:12;;;;;;;;;2.25;2.25;;;;;18.50;47.60;100170.09;5074370;28;45537;-75
2023/03/30 00:37:38;;;;;;;;;4.75;4.00;;;;;18.47;46.93;100168.59;5076542;27;45618;-73
2023/03/30 00:40:09;;;;;;;;;3.00;3.00;;;;;18.46;47.26;100166.97;5076508;28;45460;-75
2023/03/30 00:42:36;;;;;;;;;4.00;4.00;;;;;18.42;47.34;100181.56;5075869;27;46295;-72
2023/03/30 00:45:06;;;;;;;;;2.50;2.50;;;;;18.49;47.70;100181.72;5075139;27;45692;-72
2023/03/30 00:47:37;;;;;;;;;1.00;0.25;;;;;18.44;47.44;100169.78;5074796;27;45881;-74
2023/03/30 00:50:04;;;;;;;;;3.25;3.00;;;;;18.44;47.57;100166.31;5074668;28;46006;-73
2023/03/30 00:52:32;;;;;;;;;3.00;3.00;;;;;18.39;47.23;100166.00;5074697;27;45587;-74
2023/03/30 00:54:58;;;;;;;;;3.00;2.00;;;;;18.44;47.85;100190.19;5074829;27;45934;-73
2023/03/30 00:57:25;;;;;;;;;3.00;3.00;;;;;18.46;47.28;100188.19;5074390;27;45822;-72
2023/03/30 00:59:52;;;;;;;;;3.00;3.00;;;;;18.33;47.63;100172.81;5074119;27;46508;-73
2023/03/30 01:05:43;;;;;;;;;3.50;3.00;;;;;18.43;47.53;100172.59;5074242;28;45685;-74
2023/03/30 01:08:12;;;;;;;;;3.50;3.00;;;;;18.38;48.01;100159.03;5074225;27;45852;-72
2023/03/30 01:10:38;;;;;;;;;4.50;3.00;;;;;18.37;47.69;100174.13;5074172;27;45775;-73
2023/03/30 01:13:04;;;;;;;;;3.75;3.00;;;;;18.36;48.15;100182.22;5074406;28;45777;-72
2023/03/30 01:15:34;;;;;;;;;2.00;2.00;;;;;18.30;48.27;100169.69;5074308;27;45627;-74
2023/03/30 01:18:18;;;;;;;;;3.00;2.00;;;;;18.25;48.45;100186.06;5074090;27;45541;-73
2023/03/30 01:21:34;;;;;;;;;3.00;2.50;;;;;18.18;48.50;100179.81;5073854;27;47430;-73
2023/03/30 01:24:27;;;;;;;;;2.00;2.00;;;;;18.12;48.68;100167.22;5055984;27;46377;-74
2023/03/30 01:27:10;;;;;;;;;3.00;2.25;;;;;18.08;48.61;100180.97;5074384;27;45626;-73
2023/03/30 01:29:35;;;;;;;;;1.25;1.25;;;;;17.95;48.79;100168.22;5073955;27;46001;-72
2023/03/30 01:32:41;;;;;;;;;3.25;2.75;;;;;17.87;49.70;100174.34;5073412;27;46401;-74
2023/03/30 01:35:16;;;;;;;;;2.00;2.00;;;;;17.77;49.69;100188.75;5073944;27;46151;-74
2023/03/30 01:38:22;;;;;;;;;2.00;1.00;;;;;17.61;49.99;100198.38;5073723;28;45525;-74
2023/03/30 01:41:08;;;;;;;;;3.00;2.00;;;;;17.48;50.20;100213.06;5073927;27;45803;-74
2023/03/30 01:43:49;;;;;;;;;2.00;1.50;;;;;17.39;50.61;100208.72;5073920;27;45603;-74
2023/03/30 01:49:47;;;;;;;;;4.00;1.75;;;;;17.24;50.65;100171.47;5073686;28;45702;-74
2023/03/30 01:52:30;;;;;;;;;3.00;1.00;;;;;17.24;50.90;100213.81;5073876;27;45528;-74
2023/03/30 01:55:06;;;;;;;;;3.00;2.00;;;;;17.17;51.12;100195.09;5073905;28;46482;-75
2023/03/30 01:57:40;;;;;;;;;1.75;1.75;;;;;17.13;50.95;100188.47;5074901;28;46210;-74
2023/03/30 02:00:13;;;;;;;;;1.50;1.00;;;;;17.14;50.79;100202.56;5074052;27;45504;-74
2023/03/30 02:06:08;;;;;;;;;2.00;2.00;;;;;17.10;51.26;100169.47;5073684;28;46078;-74
2023/03/30 02:08:35;;;;;;;;;2.00;1.75;;;;;17.04;50.95;100155.06;5088662;27;46085;-73
2023/03/30 02:11:01;;;;;;;;;3.00;2.00;;;;;17.02;51.39;100177.34;5073024;27;45753;-74
2023/03/30 02:13:29;;;;;;;;;1.75;1.00;;;;;17.05;51.10;100187.66;5073712;28;45637;-75
2023/03/30 02:16:16;;;;;;;;;2.00;1.00;;;;;17.03;51.43;100193.09;5073692;27;46290;-74
2023/03/30 02:22:19;;;;;;;;;1.00;1.00;;;;;16.85;51.69;100210.03;5067720;28;45721;-74
2023/03/30 02:24:46;;;;;;;;;2.00;2.00;;;;;16.79;51.55;100230.03;5077191;27;45577;-73
2023/03/30 02:27:12;;;;;;;;;1.00;1.00;;;;;16.73;51.89;100214.81;5076542;27;46794;-74
2023/03/30 02:29:42;;;;;;;;;2.00;0.75;;;;;16.67;51.97;100196.91;5076879;27;45986;-73
2023/03/30 02:32:17;;;;;;;;;2.25;1.00;;;;;16.70;52.30;100209.81;5076529;27;45710;-74
2023/03/30 02:35:07;;;;;;;;;1.25;1.00;;;;;16.62;52.17;100245.00;5076980;27;45591;-73
2023/03/30 02:37:56;;;;;;;;;2.00;1.75;;;;;16.56;52.57;100234.19;5076693;27;45667;-74
2023/03/30 02:40:42;;;;;;;;;2.00;2.00;;;;;16.47;52.70;100243.88;5033872;28;45673;-74
2023/03/30 02:43:35;;;;;;;;;2.75;2.00;;;;;16.44;52.88;100246.84;5033852;28;45715;-74
2023/03/30 02:46:20;;;;;;;;;3.25;2.00;;;;;16.43;52.65;100249.63;5034310;28;45609;-73
2023/03/30 02:48:55;;;;;;;;;2.00;2.00;;;;;16.38;52.71;100245.63;5017214;28;45790;-74
2023/03/30 02:51:42;;;;;;;;;2.00;1.00;;;;;16.32;53.07;100242.78;5033821;28;46170;-75
2023/03/30 02:54:26;;;;;;;;;1.50;1.00;;;;;16.30;53.08;100250.84;5017108;28;45789;-74
2023/03/30 02:57:22;;;;;;;;;1.00;1.00;;;;;16.26;53.38;100248.69;5034112;28;45647;-74
2023/03/30 02:59:56;;;;;;;;;2.00;1.00;;;;;16.21;53.64;100257.06;5033784;28;45596;-74
2023/03/30 03:05:43;;;;;;;;;2.00;1.00;;;;;16.05;53.95;100248.19;5034201;28;45608;-74
2023/03/30 03:08:12;;;;;;;;;1.00;1.00;;;;;16.01;54.27;100226.53;5034565;28;45524;-74
2023/03/30 03:10:37;;;;;;;;;1.00;1.00;;;;;16.05;53.99;100238.44;5033916;28;46403;-74
2023/03/30 03:13:04;;;;;;;;;2.25;1.50;;;;;16.01;54.47;100262.69;5033778;28;46169;-74
2023/03/30 03:15:29;;;;;;;;;1.00;0.00;;;;;15.93;54.53;100237.84;5033679;28;45605;-75
2023/03/30 03:21:16;;;;;;;;;2.00;1.00;;;;;15.80;55.03;100229.50;5075364;28;45995;-74
2023/03/30 03:23:41;;;;;;;;;1.00;1.00;;;;;15.80;55.07;100226.88;5075920;27;47033;-75
2023/03/30 03:26:07;;;;;;;;;1.00;0.25;;;;;15.78;55.30;100249.13;5092320;27;46124;-74
2023/03/30 03:28:32;;;;;;;;;1.75;1.00;;;;;15.70;55.38;100227.91;5076934;27;45664;-75
2023/03/30 03:30:58;;;;;;;;;1.00;0.50;;;;;15.71;55.92;100248.06;5076275;28;45614;-75
2023/03/30 03:36:45;;;;;;;;;1.50;1.00;;;;;15.58;55.89;100251.09;5075695;28;45525;-72
2023/03/30 03:39:11;;;;;;;;;1.00;1.00;;;;;15.54;56.27;100241.81;5091507;27;45568;-74
2023/03/30 03:41:36;;;;;;;;;2.00;1.25;;;;;15.54;56.32;100247.09;5075203;27;46513;-73
2023/03/30 03:44:02;;;;;;;;;1.00;0.50;;;;;15.45;56.61;100250.56;5075882;27;45675;-74
2023/03/30 03:46:27;;;;;;;;;0.00;0.00;;;;;15.43;56.86;100247.25;5075701;28;45714;-73
2023/03/30 03:52:14;;;;;;;;;1.25;1.00;;;;;15.32;56.82;100234.28;5074929;28;45494;-73
2023/03/30 03:54:39;;;;;;;;;0.75;0.75;;;;;15.40;57.03;100239.63;5075641;27;45439;-73
2023/03/30 03:57:05;;;;;;;;;0.75;0.00;;;;;15.32;57.11;100237.75;5075586;28;45623;-73
2023/03/30 03:59:31;;;;;;;;;1.25;1.25;;;;;15.33;57.37;100257.06;5075535;27;45911;-75
2023/03/30 04:01:58;;;;;;;;;1.00;1.00;;;;;15.31;57.28;100262.47;5075000;27;47789;-73
2023/03/30 04:07:45;;;;;;;;;1.50;1.00;;;;;15.31;57.57;100259.84;5076006;28;45491;-74
2023/03/30 04:10:12;;;;;;;;;0.25;0.00;;;;;15.22;57.54;100252.81;5075538;27;45825;-71
2023/03/30 04:12:37;;;;;;;;;1.00;0.25;;;;;15.21;57.86;100253.78;5075811;27;46519;-74
2023/03/30 04:15:04;;;;;;;;;2.00;1.00;;;;;15.17;58.10;100248.97;5076575;28;45470;-74
2023/03/30 04:17:32;;;;;;;;;1.50;1.00;;;;;15.13;57.87;100238.69;5076651;27;45509;-74
2023/03/30 04:23:20;;;;;;;;;1.50;1.00;;;;;15.16;57.79;100239.38;5064174;28;46069;-74
2023/03/30 04:25:46;;;;;;;;;1.50;0.25;;;;;15.14;57.97;100226.31;5074736;28;46111;-73
2023/03/30 04:28:11;;;;;;;;;2.50;1.00;;;;;15.15;58.04;100246.44;5075044;27;45521;-74
2023/03/30 04:30:37;;;;;;;;;1.00;1.00;;;;;15.15;57.94;100249.09;5090002;27;45614;-73
2023/03/30 04:33:03;;;;;;;;;2.25;1.00;;;;;15.12;58.13;100252.00;5075050;28;46135;-73
2023/03/30 04:38:59;;;;;;;;;1.25;1.00;;;;;15.08;58.54;100258.56;5074624;28;45635;-74
2023/03/30 04:41:33;;;;;;;;;1.00;1.00;;;;;15.03;58.40;100247.63;5074902;27;45627;-75
2023/03/30 04:44:02;;;;;;;;;2.00;1.00;;;;;14.99;58.48;100252.38;5075036;27;46417;-74
2023/03/30 04:46:27;;;;;;;;;1.00;1.00;;;;;14.88;58.68;100247.28;5074326;27;46456;-74
2023/03/30 04:48:52;;;;;;;;;1.00;1.00;;;;;14.89;58.99;100256.03;5074800;28;45673;-74
2023/03/30 04:51:18;;;;;;;;;0.00;0.00;;;;;14.88;58.89;100263.09;5074505;27;45606;-73
2023/03/30 04:53:43;;;;;;;;;2.00;1.00;;;;;14.82;59.09;100255.75;5074600;27;45591;-73
2023/03/30 04:56:08;;;;;;;;;3.00;1.00;;;;;14.82;58.89;100261.03;5074930;28;45837;-73
2023/03/30 04:58:34;;;;;;;;;1.00;0.50;;;;;14.82;59.14;100274.22;5074691;28;45665;-73
2023/03/30 05:00:59;;;;;;;;;1.75;1.00;;;;;14.80;59.14;100264.78;5074860;27;45669;-73
2023/03/30 05:03:24;;;;;;;;;1.00;0.75;;;;;14.77;58.92;100268.56;5074488;27;45767;-73
2023/03/30 05:09:11;;;;;;;;;1.75;0.75;;;;;14.65;59.59;100278.44;5073927;28;45675;-73
2023/03/30 05:11:37;;;;;;;;;0.00;0.00;;;;;14.67;59.93;100286.22;5073950;28;45605;-73
2023/03/30 05:14:02;;;;;;;;;1.00;1.00;;;;;14.68;59.67;100282.63;5074115;28;46206;-73
2023/03/30 05:16:27;;;;;;;;;2.00;1.00;;;;;14.67;59.73;100291.50;5089068;27;47834;-74
2023/03/30 05:18:53;;;;;;;;;2.00;1.50;;;;;14.57;59.86;100288.88;5089637;27;45734;-73
2023/03/30 05:24:40;;;;;;;;;1.00;1.00;;;;;14.58;60.10;100303.72;5062431;28;47098;-73
2023/03/30 05:27:05;;;;;;;;;2.00;1.00;;;;;14.57;59.89;100302.06;5074104;27;45636;-74
2023/03/30 05:29:31;;;;;;;;;4.00;1.00;;;;;14.55;60.34;100309.28;5074425;27;45576;-74
2023/03/30 05:31:56;;;;;;;;;2.00;1.00;;;;;14.52;60.20;100311.38;5074612;27;45646;-75
2023/03/30 05:34:21;;;;;;;;;1.50;1.25;;;;;14.57;60.07;100331.06;5074281;27;46406;-73
2023/03/30 05:40:09;;;;;;;;;0.50;0.00;;;;;14.55;60.31;100324.25;5073563;28;45716;-74
2023/03/30 05:42:35;;;;;;;;;0.00;0.00;;;;;14.51;60.49;100315.81;5073998;28;45610;-76
2023/03/30 05:45:01;;;;;;;;;1.00;1.00;;;;;14.53;60.33;100332.31;5089685;27;46513;-74
2023/03/30 05:47:27;;;;;;;;;0.75;0.00;;;;;14.53;60.67;100327.03;5073890;27;46641;-74
2023/03/30 05:49:54;;;;;;;;;1.00;0.25;;;;;14.58;60.28;100326.59;5073784;27;45598;-74
2023/03/30 05:52:20;;;;;;;;;2.00;1.00;;;;;14.62;60.61;100341.19;5073883;28;45595;-73
2023/03/30 05:54:46;;;;;;;;;2.75;1.00;;;;;14.58;60.28;100339.78;5073313;28;46379;-74
2023/03/30 05:57:11;;;;;;;;;1.00;1.00;;;;;14.61;60.46;100353.53;5073520;27;47040;-72
2023/03/30 05:59:37;;;;;;;;;2.00;1.25;;;;;14.50;60.74;100327.31;5077289;27;45499;-74
2023/03/30 06:02:02;;;;;;;;;2.00;1.00;;;;;14.59;60.32;100338.81;5076805;28;45519;-74
2023/03/30 06:04:28;;;;;;;;;1.00;1.00;;;;;14.65;60.79;100356.72;5077129;27;46610;-75
2023/03/30 06:10:15;;;;;;;;;2.00;2.00;;;;;14.65;60.84;100360.19;5076785;28;45730;-73
2023/03/30 06:12:40;;;;;;;;;2.50;2.00;;;;;14.64;60.89;100353.25;5076652;27;45470;-72
2023/03/30 06:15:07;;;;;;;;;1.00;1.00;;;;;14.70;60.85;100363.22;5076720;27;47194;-73
2023/03/30 06:17:33;;;;;;;;;1.00;1.00;;;;;14.72;60.71;100370.16;5077053;27;46014;-73
2023/03/30 06:19:59;;;;;;;;;1.50;1.00;;;;;14.78;60.91;100374.88;5077026;28;45740;-73
2023/03/30 06:25:51;;;;;;;;;1.50;1.50;;;;;14.76;60.68;100363.63;5066337;28;46246;-75
2023/03/30 06:28:16;;;;;;;;;0.00;0.00;;;;;14.72;60.92;100367.53;5077360;27;46044;-72
2023/03/30 06:30:44;;;;;;;;;3.50;1.50;;;;;14.78;60.60;100375.72;5076953;27;45620;-72
2023/03/30 06:33:10;;;;;;;;;0.75;0.75;;;;;14.79;60.63;100377.34;5077967;27;45620;-74
2023/03/30 06:35:35;;;;;;;;;1.25;1.00;;;;;14.79;60.69;100384.47;5076463;28;46426;-73
2023/03/30 06:38:01;;;;;;;;;2.00;1.00;;;;;14.84;60.54;100376.97;5076451;28;47103;-72
2023/03/30 06:40:26;;;;;;;;;0.75;0.25;;;;;14.92;60.44;100388.44;5076797;27;45970;-73
2023/03/30 06:42:52;;;;;;;;;1.50;1.00;;;;;14.99;60.25;100386.09;5076893;27;45655;-73
2023/03/30 06:45:17;;;;;;;;;3.00;1.25;;;;;15.05;59.97;100394.28;5076387;28;47173;-72
2023/03/30 06:47:42;;;;;;;;;3.00;2.00;;;;;14.97;60.34;100382.75;5075266;28;45751;-72
2023/03/30 06:50:08;;;;;;;;;2.50;1.00;;;;;15.05;60.03;100419.81;5076241;27;45773;-71
2023/03/30 06:55:57;;;;;;;;;2.00;1.00;;;;;15.10;59.96;100421.06;5076332;28;46014;-73
2023/03/30 06:58:24;;;;;;;;;1.00;1.00;;;;;15.09;59.77;100421.19;5076802;27;45621;-71
2023/03/30 07:00:50;;;;;;;;;2.00;2.00;;;;;15.06;59.85;100414.38;5076227;27;45675;-73
2023/03/30 07:03:17;;;;;;;;;5.00;2.00;;;;;15.08;59.90;100438.81;5076834;27;45541;-73
2023/03/30 07:05:46;;;;;;;;;2.00;1.00;;;;;15.12;59.94;100436.72;5074973;28;46327;-71
2023/03/30 07:11:33;;;;;;;;;4.00;1.75;;;;;15.12;59.79;100431.44;5075712;28;45584;-70
2023/03/30 07:14:00;;;;;;;;;1.75;1.00;;;;;15.19;59.52;100445.75;5092232;27;45667;-72
2023/03/30 07:16:25;;;;;;;;;2.75;1.00;;;;;15.18;59.82;100445.88;5075920;27;46701;-73
2023/03/30 07:18:51;;;;;;;;;3.50;1.50;;;;;15.18;59.76;100446.72;5076086;28;45627;-72
2023/03/30 07:21:17;;;;;;;;;1.75;1.00;;;;;15.19;59.72;100444.91;5075684;28;45726;-73
2023/03/30 07:23:42;;;;;;;;;1.00;1.00;;;;;15.15;59.75;100457.56;5076280;27;45516;-73
2023/03/30 07:26:08;;;;;;;;;1.00;1.00;;;;;15.16;59.75;100446.03;5075712;27;45757;-71
2023/03/30 07:28:37;;;;;;;;;1.25;1.25;;;;;15.17;59.89;100449.53;5075549;27;47097;-73
2023/03/30 07:31:04;;;;;;;;;3.25;1.75;;;;;15.17;59.95;100458.25;5075510;27;45689;-73
2023/03/30 07:33:30;;;;;;;;;2.00;1.75;;;;;15.15;59.98;100462.84;5076104;27;45603;-72
2023/03/30 07:35:56;;;;;;;;;3.25;1.50;;;;;15.15;59.90;100454.09;5075488;27;45628;-73
2023/03/30 07:41:43;;;;;;;;;3.00;1.25;;;;;15.11;59.45;100464.09;5075350;28;45683;-72
2023/03/30 07:44:08;;;;;;;;;1.25;1.00;;;;;15.09;59.56;100471.31;5075707;27;45695;-72
2023/03/30 07:46:34;;;;;;;;;2.00;2.00;;;;;15.01;59.66;100461.47;5075539;27;46270;-74
2023/03/30 07:48:59;;;;;;;;;1.25;1.00;;;;;15.01;59.55;100465.91;5075747;27;46079;-72
2023/03/30 07:51:25;;;;;;;;;2.75;1.25;;;;;15.06;59.37;100468.97;5075121;28;45943;-73
2023/03/30 07:53:50;;;;;;;;;2.00;2.00;;;;;15.10;59.36;100473.84;5075686;28;45627;-73
2023/03/30 07:56:16;;;;;;;;;2.00;1.00;;;;;15.14;59.55;100479.66;5075179;27;46243;-73
2023/03/30 07:58:42;;;;;;;;;1.50;0.50;;;;;15.12;59.08;100481.59;5075424;27;46113;-72
2023/03/30 08:01:07;;;;;;;;;0.75;0.75;;;;;15.18;59.13;100498.66;5075177;27;45600;-72
2023/03/30 08:03:33;;;;;;;;;2.00;1.50;;;;;15.25;58.79;100482.13;5075593;27;45529;-73
2023/03/30 08:06:05;;;;;;;;;1.00;1.00;;;;;15.26;58.20;100482.97;5090947;27;45800;-73
2023/03/30 08:11:52;;;;;;;;;2.50;2.00;;;;;15.31;58.31;100492.13;5074744;28;45717;-72
2023/03/30 08:14:17;;;;;;;;;0.75;0.75;;;;;15.27;58.29;100472.28;5075307;28;45787;-72
2023/03/30 08:16:42;;;;;;;;;2.25;1.25;;;;;15.42;58.35;100488.50;5090673;27;47431;-73
2023/03/30 08:19:08;;;;;;;;;1.75;1.25;;;;;15.51;57.83;100498.19;5074607;27;46160;-70
2023/03/30 08:21:33;;;;;;;;;0.75;0.50;;;;;15.40;58.06;100479.88;5074043;27;45807;-71
2023/03/30 08:27:20;;;;;;;;;2.75;2.00;;;;;15.65;57.63;100510.97;5063228;28;46054;-73
2023/03/30 08:29:45;;;;;;;;;2.75;2.00;;;;;15.73;57.49;100513.72;5074636;27;46115;-73
2023/03/30 08:32:11;;;;;;;;;2.25;1.75;;;;;15.73;57.63;100516.34;5074689;28;45627;-71
2023/03/30 08:34:36;;;;;;;;;1.25;1.00;;;;;15.79;57.44;100512.31;5074980;28;45535;-72
2023/03/30 08:37:01;;;;;;;;;2.00;1.50;;;;;15.86;57.44;100519.53;5074478;27;46579;-72
2023/03/30 08:39:29;;;;;;;;;1.00;0.75;;;;;15.90;57.31;100517.41;5074465;28;46217;-71
2023/03/30 08:42:01;;;;;;;;;3.25;1.00;;;;;15.87;57.39;100510.59;5074482;27;45485;-72
2023/03/30 08:44:37;;;;;;;;;0.00;0.00;;;;;15.94;57.50;100526.69;5075050;27;45745;-70
2023/03/30 08:47:08;;;;;;;;;1.75;1.00;;;;;15.93;57.10;100523.22;5074486;28;46641;-72
2023/03/30 08:49:40;;;;;;;;;2.75;1.00;;;;;16.00;57.17;100530.56;5074118;27;46172;-73
2023/03/30 08:52:07;;;;;;;;;2.50;0.75;;;;;16.03;57.20;100525.00;5074317;28;45603;-73
2023/03/30 08:54:33;;;;;;;;;5.50;1.00;;;;;16.06;57.14;100544.03;5090221;27;45584;-73
2023/03/30 08:57:34;;;;;;;;;2.00;1.00;;;;;16.05;56.64;100533.59;5074532;28;46420;-73
2023/03/30 09:00:18;;;;;;;;;3.00;1.00;;;;;16.05;56.81;100538.91;5073935;27;45664;-73
2023/03/30 09:02:50;;;;;;;;;2.75;1.75;;;;;15.97;56.83;100525.59;5074123;27;45739;-71
2023/03/30 09:05:25;;;;;;;;;2.75;1.75;;;;;16.02;56.74;100541.84;5074436;27;45641;-73
2023/03/30 09:08:00;;;;;;;;;2.75;2.00;;;;;16.05;56.86;100539.72;5074307;28;46693;-72
2023/03/30 09:10:29;;;;;;;;;1.00;0.00;;;;;16.08;56.54;100550.03;5074070;27;45917;-72
2023/03/30 09:12:58;;;;;;;;;3.00;2.00;;;;;16.04;56.76;100543.34;5074561;27;45648;-73
2023/03/30 09:15:31;;;;;;;;;2.00;1.00;;;;;16.11;56.95;100555.00;5074231;27;45716;-73
2023/03/30 09:18:17;;;;;;;;;4.75;2.00;;;;;16.15;56.69;100537.88;5074276;27;46515;-72
2023/03/30 09:20:45;;;;;;;;;3.00;1.75;;;;;16.13;56.87;100558.34;5089571;27;48455;-73
2023/03/30 09:23:14;;;;;;;;;2.50;2.00;;;;;16.16;57.00;100559.84;5074328;27;45747;-73
2023/03/30 09:25:57;;;;;;;;;1.00;1.00;;;;;16.24;56.86;100552.03;5074183;27;45708;-71
2023/03/30 09:28:30;;;;;;;;;4.00;2.50;;;;;16.28;57.02;100550.75;5073887;27;46208;-71
2023/03/30 09:31:15;;;;;;;;;3.75;2.00;;;;;16.36;56.60;100556.13;5073640;27;46206;-72
2023/03/30 09:33:48;;;;;;;;;1.75;1.75;;;;;16.41;56.52;100556.53;5072782;27;45690;-73
2023/03/30 09:36:20;;;;;;;;;2.00;1.25;;;;;16.48;56.17;100565.53;5074085;27;45710;-72
2023/03/30 09:38:45;;;;;;;;;2.00;1.00;;;;;16.48;55.73;100552.31;5073843;27;47014;-73
2023/03/30 09:41:17;;;;;;;;;2.75;0.00;;;;;16.51;55.16;100562.63;5073716;28;45553;-72
2023/03/30 09:43:45;;;;;;;;;2.00;1.00;;;;;16.50;55.30;100560.09;5073855;27;45704;-73
2023/03/30 09:46:12;;;;;;;;;0.75;0.50;;;;;16.59;55.42;100561.88;5073725;27;45899;-73
2023/03/30 09:48:42;;;;;;;;;1.25;1.00;;;;;16.63;55.04;100561.44;5073577;27;46563;-72
2023/03/30 09:51:24;;;;;;;;;2.50;2.00;;;;;16.70;55.21;100565.16;5073592;28;45963;-71
2023/03/30 09:53:58;;;;;;;;;2.50;1.00;;;;;16.69;54.81;100575.88;5073488;27;45609;-72
2023/03/30 09:56:23;;;;;;;;;3.25;2.00;;;;;16.64;54.69;100567.56;5073803;27;45978;-73
2023/03/30 09:58:49;;;;;;;;;2.00;1.67;;;;;16.66;54.59;100565.59;5073556;28;45651;-73
2023/03/30 10:01:18;;;;;;;;;3.00;2.00;;;;;16.77;54.68;100568.03;5073314;27;46003;-72
2023/03/30 10:04:03;;;;;;;;;1.75;1.00;;;;;16.84;54.12;100571.75;5073460;27;45569;-73
2023/03/30 10:06:33;;;;;;;;;2.00;1.00;;;;;16.82;54.02;100565.78;5089334;27;45668;-71
2023/03/30 10:09:04;;;;;;;;;3.25;2.00;;;;;16.90;54.00;100584.38;5073442;27;45552;-73
2023/03/30 10:11:35;;;;;;;;;2.50;1.50;;;;;16.87;53.77;100575.91;5073071;27;46284;-74
2023/03/30 10:14:01;;;;;;;;;3.50;1.50;;;;;16.82;53.92;100575.53;5073330;28;45690;-74
2023/03/30 10:16:31;;;;;;;;;3.50;1.00;;;;;16.81;53.75;100579.97;5073649;27;45944;-73
2023/03/30 10:19:02;;;;;;;;;4.00;2.00;;;;;16.84;53.64;100590.28;5073180;27;47608;-72
2023/03/30 10:21:34;;;;;;;;;2.50;1.75;;;;;16.85;53.76;100580.50;5073085;27;46476;-73
2023/03/30 10:24:03;;;;;;;;;1.50;1.00;;;;;16.85;53.00;100586.63;5073231;27;45757;-73
2023/03/30 10:26:29;;;;;;;;;6.50;1.75;;;;;16.82;53.45;100571.06;5073153;28;45522;-72
2023/03/30 10:29:06;;;;;;;;;3.25;2.00;;;;;16.88;52.89;100575.78;5073388;27;46580;-74
2023/03/30 10:31:37;;;;;;;;;2.25;1.00;;;;;16.93;52.97;100585.91;5072955;27;45830;-71
2023/03/30 10:34:05;;;;;;;;;4.25;2.00;;;;;16.92;52.22;100571.00;5073123;27;45625;-72
2023/03/30 10:36:34;;;;;;;;;2.00;2.00;;;;;16.96;52.28;100580.28;5073458;27;45755;-71
2023/03/30 10:39:07;;;;;;;;;2.50;1.50;;;;;16.93;52.19;100577.97;5072906;27;47510;-73
2023/03/30 10:41:36;;;;;;;;;2.50;1.75;;;;;16.92;52.24;100577.13;5072704;27;46244;-74
2023/03/30 10:44:42;;;;;;;;;2.00;1.50;;;;;16.94;52.25;100574.34;5074164;27;45752;-72
2023/03/30 10:47:20;;;;;;;;;2.00;1.00;;;;;16.86;52.05;100569.78;5034097;28;45826;-73
2023/03/30 10:50:08;;;;;;;;;3.50;2.50;;;;;16.82;51.95;100567.59;5072207;27;45581;-71
2023/03/30 10:52:49;;;;;;;;;3.50;1.25;;;;;16.77;52.19;100542.41;5070461;27;46512;-72
2023/03/30 10:55:47;;;;;;;;;2.25;1.00;;;;;16.94;51.68;100559.28;5076313;27;45728;-71
2023/03/30 10:58:35;;;;;;;;;5.00;2.25;;;;;17.06;51.79;100552.75;5061742;27;45812;-71
2023/03/30 11:01:35;;;;;;;;;4.00;2.00;;;;;17.17;51.02;100538.47;5076099;27;46849;-72
2023/03/30 11:04:10;;;;;;;;;5.00;2.00;;;;;17.27;51.40;100555.13;5075980;27;47248;-73
2023/03/30 11:06:40;;;;;;;;;3.75;1.50;;;;;17.27;51.04;100546.34;5091990;27;45561;-72
2023/03/30 11:12:38;;;;;;;;;2.25;1.50;;;;;17.37;50.82;100555.84;5075966;28;45478;-72
2023/03/30 11:15:14;;;;;;;;;1.00;1.00;;;;;17.36;50.42;100542.75;5075865;28;46678;-71
2023/03/30 11:17:51;;;;;;;;;1.00;1.00;;;;;17.41;50.61;100533.34;5075917;27;45836;-71
2023/03/30 11:20:26;;;;;;;;;2.00;2.00;;;;;17.44;50.51;100543.63;5091448;27;45503;-72
2023/03/30 11:23:04;;;;;;;;;3.75;2.00;;;;;17.52;50.02;100556.13;5074394;28;46775;-73
2023/03/30 11:28:58;;;;;;;;;4.25;2.75;;;;;17.61;48.65;100558.69;5066414;28;45772;-74
2023/03/30 11:31:31;;;;;;;;;3.00;0.00;;;;;17.60;48.13;100562.31;5075416;28;45607;-73
2023/03/30 11:34:09;;;;;;;;;2.00;2.00;;;;;17.58;48.18;100547.56;5075820;28;46396;-72
2023/03/30 11:36:45;;;;;;;;;2.00;1.50;;;;;17.61;48.77;100545.44;5075564;27;46225;-74
2023/03/30 11:39:14;;;;;;;;;0.00;0.00;;;;;17.66;48.27;100530.88;5075204;28;45683;-73
2023/03/30 11:41:46;;;;;;;;;1.50;1.00;;;;;17.67;48.19;100548.47;5075989;27;45895;-70
2023/03/30 11:44:11;;;;;;;;;3.75;2.00;;;;;17.67;48.55;100527.25;5075592;27;45623;-73
2023/03/30 11:47:02;;;;;;;;;2.75;1.50;;;;;17.79;48.95;100541.91;5075504;28;45707;-72
2023/03/30 11:49:34;;;;;;;;;3.00;2.25;;;;;17.88;48.69;100562.16;5075683;28;45674;-72
2023/03/30 11:52:20;;;;;;;;;1.25;0.75;;;;;17.85;48.28;100543.94;5075636;27;45577;-72
2023/03/30 11:55:11;;;;;;;;;1.00;1.00;;;;;17.82;48.40;100549.53;5074896;27;46196;-72
2023/03/30 11:57:50;;;;;;;;;3.00;2.00;;;;;17.81;48.86;100547.91;5075347;28;45995;-71
2023/03/30 12:00:57;;;;;;;;;2.00;1.50;;;;;17.85;48.30;100563.31;5074887;27;45684;-71
2023/03/30 12:03:37;;;;;;;;;1.50;1.00;;;;;17.61;48.94;100544.63;5032749;28;45708;-71
2023/03/30 12:06:15;;;;;;;;;2.50;1.00;;;;;17.60;49.08;100549.06;5016494;28;45651;-72
2023/03/30 12:12:10;;;;;;;;;2.00;2.00;;;;;17.48;50.05;100539.72;5031982;28;45722;-72
2023/03/30 12:15:14;;;;;;;;;1.75;1.00;;;;;17.48;50.36;100542.38;5032537;28;45576;-73
2023/03/30 12:17:44;;;;;;;;;1.25;1.00;;;;;17.41;50.69;100528.06;5010534;28;46773;-70
2023/03/30 12:20:24;;;;;;;;;2.00;1.00;;;;;17.34;50.73;100537.59;5032136;28;46214;-70
2023/03/30 12:23:03;;;;;;;;;2.00;2.00;;;;;17.25;50.80;100525.28;5032657;28;45934;-71
2023/03/30 12:28:53;;;;;;;;;4.50;1.00;;;;;17.20;51.38;100538.16;5032056;28;45650;-72
2023/03/30 12:31:19;;;;;;;;;2.75;1.75;;;;;17.21;51.13;100523.94;5031801;28;46581;-72
2023/03/30 12:33:48;;;;;;;;;4.75;3.00;;;;;17.17;51.20;100519.91;5032218;28;45600;-71
2023/03/30 12:36:38;;;;;;;;;2.75;1.00;;;;;17.23;51.47;100519.31;5032391;28;45643;-72
2023/03/30 12:45:31;;;;;;;;;3.00;1.50;;;;;17.26;51.63;100497.84;5075757;28;45668;-72
2023/03/30 12:48:02;;;;;;;;;3.00;1.00;;;;;17.32;51.87;100509.63;5075519;27;45870;-70
2023/03/30 12:50:44;;;;;;;;;3.75;1.00;;;;;17.44;51.28;100508.38;5074821;28;45513;-73
2023/03/30 12:53:27;;;;;;;;;2.00;2.00;;;;;17.59;51.07;100499.75;5074608;27;46019;-72
2023/03/30 12:56:12;;;;;;;;;1.75;1.00;;;;;17.76;50.93;100507.78;5074613;27;45656;-73
2023/03/30 12:59:16;;;;;;;;;1.00;1.00;;;;;17.88;50.06;100517.94;5074533;28;45761;-73
2023/03/30 13:02:11;;;;;;;;;2.00;1.00;;;;;17.89;49.97;100508.16;5014889;28;47199;-73
2023/03/30 13:04:41;;;;;;;;;4.75;2.25;;;;;17.92;50.23;100486.66;5031785;28;47274;-72
2023/03/30 13:07:16;;;;;;;;;1.00;1.00;;;;;18.01;50.32;100486.53;5031836;28;45656;-72
2023/03/30 13:13:04;;;;;;;;;2.50;0.75;;;;;18.18;50.47;100498.03;5031613;28;45606;-71
2023/03/30 13:15:38;;;;;;;;;1.75;1.25;;;;;18.23;49.82;100489.59;5031652;28;46677;-74
2023/03/30 13:18:24;;;;;;;;;4.50;1.50;;;;;18.25;49.88;100479.63;5031399;28;45726;-72
2023/03/30 13:20:49;;;;;;;;;2.50;0.50;;;;;18.24;49.78;100491.25;5031378;28;45828;-71
2023/03/30 13:23:14;;;;;;;;;2.00;2.00;;;;;18.24;50.34;100491.25;5031424;28;47403;-73
2023/03/30 13:29:10;;;;;;;;;4.50;1.00;;;;;18.28;50.31;100466.06;5027032;28;45958;-73